Hlavní strana
METAR-TAF:

METAR-TAF

Letiště :

Coles County Memorial Airport

Mattoon / Charleston, Illinois, Spojené státy americké

zeměpisná šířka: 39-28-41N, zeměpisná délka: 088-16-45W, výška: 220 m

Aktuální stav počasí

Zpráva byla vytvořena před 49 minutami, v 20:53 UTC
Jihozápadní vítr 7 kt
Teplota 14°C
Vlhkost vzduchu 94%
Tlak 1009 hPa
Viditelnost: 16.1 km
Zataženo ve výšce 3400 ft

METAR: KMTO 282053Z AUTO 23007KT 10SM OVC034 14/13 A2979 RMK AO2 LTG DSNT SW RAB14E29 SLP086 P0001 60001 T01440128 53003

Čas: 15:42 (21:42 UTC)


TAF: chybějící

Stav a předpovědi počasí z více než 4 000 letišť (zprávy METAR a TAF).

Červené a žluté tečky na mapě představují dostupné meteorologické stanice.

Když kurzor umístíte na tečku, zobrazí se název stanice.

Pak kliknutím zobrazíte stav a předpověď počasí.

Chcete-li změnit mapu, kliknutím na zelené tlačítko se znaménkem +mapu přiblížíte, kliknutím na zelené tlačítko se znaménkem – mapu oddálíte a kliknutím na zelené šipky přejdete na sousední mapy.


METAR-TAF: